Time;durP1;ratioP1;P1;durP2;ratioP2;P2;SDS_P1;SDS_P2;PMS_P1;PMS_P2;Temp;Humidity;BMP_temperature;BMP_pressure;BME280_temperature;BME280_humidity;BME280_pressure;Samples;Min_cycle;Max_cycle;Signal;HPM_P1;HPM_P2
2022/08/27 00:01:54;;;;;;;6.25;2.45;;;;;;;15.97;87.61;101701.59;5052810;28;20453;-72
2022/08/27 00:04:19;;;;;;;5.05;2.53;;;;;;;15.85;87.94;101698.44;5042247;28;20060;-72
2022/08/27 00:06:45;;;;;;;5.53;2.40;;;;;;;15.79;87.69;101697.75;5044827;28;20026;-72
2022/08/27 00:09:10;;;;;;;5.90;2.55;;;;;;;15.65;88.67;101680.63;5036108;28;20037;-72
2022/08/27 00:11:36;;;;;;;6.47;2.38;;;;;;;15.66;89.45;101690.28;5048799;28;20064;-72
2022/08/27 00:14:01;;;;;;;8.38;2.60;;;;;;;15.65;89.43;101690.28;5037635;28;20502;-72
2022/08/27 00:16:27;;;;;;;6.88;2.53;;;;;;;15.59;89.93;101691.31;5047886;28;20036;-72
2022/08/27 00:18:54;;;;;;;5.60;2.58;;;;;;;15.52;90.01;101692.41;5051923;28;20506;-72
2022/08/27 00:21:19;;;;;;;8.07;2.90;;;;;;;15.46;89.10;101679.47;5051705;28;20591;-72
2022/08/27 00:23:44;;;;;;;5.63;2.78;;;;;;;15.41;90.64;101689.28;5041153;28;20104;-72
2022/08/27 00:26:10;;;;;;;7.53;2.78;;;;;;;15.34;90.28;101693.00;5051390;28;20036;-72
2022/08/27 00:28:36;;;;;;;3.40;2.50;;;;;;;15.29;91.09;101689.63;5050697;28;20025;-72
2022/08/27 00:31:01;;;;;;;8.38;3.30;;;;;;;15.28;91.17;101687.91;5041424;28;20021;-72
2022/08/27 00:33:27;;;;;;;5.25;2.63;;;;;;;15.21;91.92;101682.00;5038093;28;20033;-72
2022/08/27 00:35:52;;;;;;;6.85;2.83;;;;;;;15.22;92.48;101684.56;5043516;28;20029;-72
2022/08/27 00:38:20;;;;;;;9.35;3.13;;;;;;;15.17;91.52;101682.97;5051793;28;20021;-72
2022/08/27 00:40:46;;;;;;;12.25;3.10;;;;;;;15.09;92.51;101685.81;5051442;28;20028;-72
2022/08/27 00:43:12;;;;;;;7.00;2.90;;;;;;;15.07;92.53;101694.63;5037082;28;20025;-72
2022/08/27 00:45:42;;;;;;;6.30;2.75;;;;;;;14.98;92.65;101696.63;5036375;28;20108;-72
2022/08/27 00:48:11;;;;;;;6.15;3.10;;;;;;;14.89;93.10;101688.16;5040906;28;20040;-72
2022/08/27 00:50:45;;;;;;;4.95;3.05;;;;;;;14.85;93.83;101689.16;5051434;28;20021;-72
2022/08/27 00:53:14;;;;;;;7.63;3.47;;;;;;;14.79;94.75;101691.94;5046370;28;20388;-72
2022/08/27 00:55:46;;;;;;;7.82;3.45;;;;;;;14.70;94.72;101688.66;5051374;28;20012;-72
2022/08/27 00:58:16;;;;;;;5.57;3.20;;;;;;;14.72;95.45;101697.34;5051690;28;20035;-72
2022/08/27 01:00:43;;;;;;;7.25;3.47;;;;;;;14.75;95.77;101702.53;5051008;28;20025;-72
2022/08/27 01:03:09;;;;;;;6.65;3.50;;;;;;;14.65;95.31;101687.94;5042909;28;20017;-72
2022/08/27 01:05:35;;;;;;;6.07;3.35;;;;;;;14.65;95.42;101682.69;5051807;28;20389;-72
2022/08/27 01:08:08;;;;;;;6.72;3.60;;;;;;;14.61;95.71;101678.41;5050460;28;20484;-72
2022/08/27 01:10:35;;;;;;;5.93;3.40;;;;;;;14.57;95.71;101670.66;5051747;28;20025;-72
2022/08/27 01:13:01;;;;;;;7.88;3.40;;;;;;;14.57;95.97;101684.63;5039431;28;20033;-72
2022/08/27 01:15:28;;;;;;;7.45;4.00;;;;;;;14.52;96.19;101684.78;5050480;28;20362;-72
2022/08/27 01:17:55;;;;;;;8.43;3.88;;;;;;;14.51;96.45;101688.28;5051923;28;20107;-72
2022/08/27 01:20:26;;;;;;;7.80;3.78;;;;;;;14.44;96.70;101683.22;5051184;28;20033;-72
2022/08/27 01:23:10;;;;;;;9.70;4.10;;;;;;;14.42;96.48;101680.63;5041855;28;20056;-72
2022/08/27 01:25:36;;;;;;;5.88;4.10;;;;;;;14.38;96.63;101685.97;5051257;28;20056;-72
2022/08/27 01:28:03;;;;;;;10.48;4.28;;;;;;;14.38;96.93;101681.59;5050439;28;20507;-72
2022/08/27 01:30:30;;;;;;;9.82;4.07;;;;;;;14.33;96.78;101675.63;5050752;28;20029;-72
2022/08/27 01:32:56;;;;;;;6.63;3.78;;;;;;;14.27;97.15;101675.78;5040429;28;20026;-71
2022/08/27 01:35:22;;;;;;;9.07;4.15;;;;;;;14.25;97.08;101675.81;5043817;28;20033;-72
2022/08/27 01:37:52;;;;;;;8.80;4.45;;;;;;;14.23;97.58;101677.63;5051354;28;20033;-72
2022/08/27 01:40:19;;;;;;;9.05;4.40;;;;;;;14.21;97.61;101676.78;5050580;28;20032;-72
2022/08/27 01:42:50;;;;;;;8.45;4.80;;;;;;;14.18;97.53;101689.13;5042328;28;20120;-72
2022/08/27 01:45:18;;;;;;;7.38;4.80;;;;;;;14.09;97.89;101681.47;5041201;28;20037;-72
2022/08/27 01:47:43;;;;;;;6.82;3.67;;;;;;;14.07;98.15;101676.28;5051128;28;20076;-72
2022/08/27 01:50:16;;;;;;;7.75;4.88;;;;;;;14.09;98.25;101673.59;5041285;28;20490;-72
2022/08/27 01:52:43;;;;;;;11.70;4.90;;;;;;;14.09;98.63;101679.72;5031218;28;20063;-72
2022/08/27 01:55:12;;;;;;;7.63;4.47;;;;;;;13.98;98.77;101660.78;5046505;28;20167;-71
2022/08/27 01:57:38;;;;;;;10.55;5.00;;;;;;;13.94;98.50;101669.63;5045684;28;20029;-72
2022/08/27 02:00:07;;;;;;;7.20;4.53;;;;;;;13.92;98.93;101676.66;5041141;28;20469;-72
2022/08/27 02:02:32;;;;;;;8.77;4.85;;;;;;;13.94;99.02;101680.97;5028597;28;20488;-71
2022/08/27 02:04:58;;;;;;;8.20;5.18;;;;;;;13.87;99.31;101678.53;5042920;28;20033;-71
2022/08/27 02:07:23;;;;;;;9.20;5.05;;;;;;;13.77;99.86;101675.28;5054349;28;20059;-72
2022/08/27 02:09:48;;;;;;;9.25;4.97;;;;;;;13.76;100.00;101674.38;5055011;28;20484;-71
2022/08/27 02:12:14;;;;;;;9.35;4.97;;;;;;;13.74;100.00;101667.47;5047699;28;20034;-72
2022/08/27 02:14:39;;;;;;;10.05;4.88;;;;;;;13.75;100.00;101677.91;5042602;28;20090;-72
2022/08/27 02:17:04;;;;;;;9.13;5.35;;;;;;;13.76;99.94;101669.13;5054690;28;20041;-71
2022/08/27 02:19:30;;;;;;;7.32;4.75;;;;;;;13.75;100.00;101671.81;5053579;28;20025;-72
2022/08/27 02:21:59;;;;;;;9.52;5.28;;;;;;;13.72;100.00;101667.50;5051198;28;20083;-72
2022/08/27 02:24:25;;;;;;;9.18;5.13;;;;;;;13.71;100.00;101671.03;5051479;28;20119;-72
2022/08/27 02:26:50;;;;;;;8.30;4.97;;;;;;;13.66;100.00;101665.00;5054688;28;20068;-72
2022/08/27 02:29:15;;;;;;;11.25;5.10;;;;;;;13.68;100.00;101660.59;5054233;28;20049;-72
2022/08/27 02:31:41;;;;;;;8.70;5.55;;;;;;;13.63;100.00;101665.09;5051560;28;20392;-72
2022/08/27 02:34:06;;;;;;;9.40;5.60;;;;;;;13.64;100.00;101656.34;5037310;28;20037;-72
2022/08/27 02:36:32;;;;;;;8.02;5.45;;;;;;;13.65;100.00;101657.19;5053062;28;20138;-72
2022/08/27 02:38:57;;;;;;;7.63;5.43;;;;;;;13.61;100.00;101653.78;5049052;28;20480;-72
2022/08/27 02:41:22;;;;;;;8.32;5.30;;;;;;;13.59;100.00;101653.81;5046331;28;20686;-72
2022/08/27 02:43:47;;;;;;;11.43;5.90;;;;;;;13.58;100.00;101661.72;5040508;28;20066;-72
2022/08/27 02:46:13;;;;;;;9.07;5.38;;;;;;;13.61;100.00;101655.56;5042152;28;20046;-72
2022/08/27 02:48:39;;;;;;;8.13;5.72;;;;;;;13.68;100.00;101655.38;5040050;28;20487;-72
2022/08/27 02:51:06;;;;;;;14.05;6.43;;;;;;;13.70;100.00;101656.22;5052936;28;20037;-72
2022/08/27 02:53:32;;;;;;;9.68;5.68;;;;;;;13.72;100.00;101658.78;5051243;28;20032;-72
2022/08/27 02:55:57;;;;;;;9.48;5.75;;;;;;;13.77;100.00;101663.03;5054369;28;20032;-72
2022/08/27 02:58:23;;;;;;;8.45;5.70;;;;;;;13.84;100.00;101662.88;5053477;28;20029;-72
2022/08/27 03:00:49;;;;;;;8.05;5.85;;;;;;;13.96;100.00;101654.69;5053489;28;20029;-71
2022/08/27 03:03:14;;;;;;;10.27;6.22;;;;;;;14.02;100.00;101660.66;5035725;28;20033;-71
2022/08/27 03:05:39;;;;;;;10.38;6.40;;;;;;;14.04;99.97;101665.88;5053700;28;20143;-72
2022/08/27 03:08:05;;;;;;;10.57;6.22;;;;;;;14.10;100.00;101664.88;5052826;28;20040;-72
2022/08/27 03:10:34;;;;;;;14.63;6.95;;;;;;;14.17;100.00;101659.41;5049350;28;20021;-72
2022/08/27 03:12:59;;;;;;;8.82;5.65;;;;;;;14.20;99.97;101656.72;5046505;28;20044;-71
2022/08/27 03:15:24;;;;;;;10.30;6.32;;;;;;;14.25;99.44;101654.81;5052659;28;20017;-72
2022/08/27 03:20:40;;;;;;;12.40;5.82;;;;;;;14.19;99.18;101659.34;5052762;28;20090;-72
2022/08/27 03:23:09;;;;;;;8.45;6.03;;;;;;;14.17;99.30;101656.78;5045639;28;20023;-72
2022/08/27 03:25:36;;;;;;;12.02;6.15;;;;;;;14.13;98.95;101660.41;5053274;28;20033;-72
2022/08/27 03:28:02;;;;;;;12.13;6.20;;;;;;;14.02;99.23;101650.16;5052536;28;20024;-72
2022/08/27 03:30:27;;;;;;;10.27;5.78;;;;;;;13.99;99.04;101657.25;5053036;28;20025;-72
2022/08/27 03:32:53;;;;;;;8.75;5.95;;;;;;;13.99;99.43;101663.34;5039283;28;20048;-72
2022/08/27 03:35:19;;;;;;;7.80;5.85;;;;;;;14.00;99.52;101658.97;5052360;28;20392;-71
2022/08/27 03:37:45;;;;;;;14.60;6.75;;;;;;;13.91;99.34;101664.44;5053439;28;20029;-71
2022/08/27 03:40:12;;;;;;;9.70;5.78;;;;;;;13.92;100.00;101661.78;5053144;28;20454;-72
2022/08/27 03:42:37;;;;;;;9.07;5.38;;;;;;;13.83;100.00;101656.75;5039840;28;20596;-72
2022/08/27 03:45:04;;;;;;;9.80;6.35;;;;;;;13.81;100.00;101664.66;5051892;28;20032;-72
2022/08/27 03:47:29;;;;;;;12.20;6.45;;;;;;;13.70;100.00;101666.69;5052667;28;20091;-72
2022/08/27 03:49:55;;;;;;;10.52;6.68;;;;;;;13.68;100.00;101667.63;5051877;28;20032;-72
2022/08/27 03:52:20;;;;;;;11.68;6.78;;;;;;;13.70;100.00;101665.78;5042237;28;20033;-72
2022/08/27 03:54:45;;;;;;;10.10;6.60;;;;;;;13.67;100.00;101661.50;5036563;28;20056;-72
2022/08/27 03:57:11;;;;;;;10.20;6.47;;;;;;;13.74;100.00;101670.94;5052148;28;20063;-72
2022/08/27 03:59:37;;;;;;;8.52;6.75;;;;;;;13.78;100.00;101669.13;5052770;28;20393;-72
2022/08/27 04:02:03;;;;;;;12.65;6.43;;;;;;;13.82;100.00;101660.28;5043055;28;20026;-71
2022/08/27 04:04:29;;;;;;;13.15;7.20;;;;;;;13.87;100.00;101660.19;5042606;28;20059;-72
2022/08/27 04:06:56;;;;;;;8.32;6.25;;;;;;;13.85;100.00;101659.34;5052815;28;20028;-71
2022/08/27 04:09:21;;;;;;;11.27;6.72;;;;;;;13.89;100.00;101667.09;5052294;28;20044;-71
2022/08/27 04:11:46;;;;;;;10.38;6.78;;;;;;;13.90;100.00;101662.72;5047840;28;20021;-71
2022/08/27 04:14:12;;;;;;;12.48;7.00;;;;;;;13.86;100.00;101651.44;5052541;28;20036;-71
2022/08/27 04:16:40;;;;;;;10.82;7.00;;;;;;;13.87;100.00;101660.19;5052301;28;20031;-72
2022/08/27 04:19:05;;;;;;;9.60;6.72;;;;;;;13.88;100.00;101659.28;5051268;28;20037;-72
2022/08/27 04:21:32;;;;;;;8.65;6.63;;;;;;;13.74;100.00;101657.84;5049531;28;20021;-72
2022/08/27 04:23:57;;;;;;;11.93;6.95;;;;;;;13.69;100.00;101654.47;5049250;28;20084;-72
2022/08/27 04:26:23;;;;;;;12.20;6.60;;;;;;;13.55;100.00;101648.69;5052029;28;20556;-72
2022/08/27 04:28:48;;;;;;;14.35;7.03;;;;;;;13.57;100.00;101654.78;5051807;28;20021;-71
2022/08/27 04:31:14;;;;;;;10.48;7.10;;;;;;;13.55;100.00;101667.03;5051123;28;20040;-72
2022/08/27 04:33:40;;;;;;;10.38;6.45;;;;;;;13.51;100.00;101665.38;5039700;28;20473;-71
2022/08/27 04:36:08;;;;;;;14.75;7.32;;;;;;;13.45;100.00;101661.13;5051999;28;20120;-72
2022/08/27 04:38:34;;;;;;;11.30;7.63;;;;;;;13.44;100.00;101666.38;5051179;28;20457;-72
2022/08/27 04:41:20;;;;;;;15.52;7.38;;;;;;;13.39;100.00;101670.88;5052016;28;20039;-72
2022/08/27 04:43:48;;;;;;;11.75;7.28;;;;;;;13.40;100.00;101673.47;5039997;28;20393;-72
2022/08/27 04:46:17;;;;;;;11.88;7.60;;;;;;;13.39;100.00;101670.88;5041104;28;20042;-72
2022/08/27 04:48:42;;;;;;;14.23;7.45;;;;;;;13.37;100.00;101672.66;5041250;28;20021;-71
2022/08/27 04:51:08;;;;;;;13.48;7.60;;;;;;;13.39;100.00;101671.75;5051561;28;20045;-71
2022/08/27 04:53:33;;;;;;;14.02;7.43;;;;;;;13.45;100.00;101666.38;5034116;28;20025;-71
2022/08/27 04:55:58;;;;;;;11.43;7.40;;;;;;;13.52;100.00;101667.09;5043289;28;20025;-71
2022/08/27 04:58:25;;;;;;;16.45;7.78;;;;;;;13.68;100.00;101681.56;5051171;28;20488;-72
2022/08/27 05:00:53;;;;;;;12.27;7.60;;;;;;;13.73;100.00;101674.47;5051317;28;20025;-71
2022/08/27 05:03:22;;;;;;;10.95;8.52;;;;;;;13.80;100.00;101673.44;5036619;28;20108;-72
2022/08/27 05:05:48;;;;;;;12.73;7.72;;;;;;;13.81;100.00;101685.63;5041140;28;20027;-72
2022/08/27 05:08:14;;;;;;;14.25;7.97;;;;;;;13.81;100.00;101680.38;5050705;28;20021;-72
2022/08/27 05:10:45;;;;;;;10.25;7.30;;;;;;;13.85;100.00;101680.31;5051280;28;20028;-72
2022/08/27 05:13:11;;;;;;;11.23;7.28;;;;;;;13.78;100.00;101664.72;5047519;28;20149;-71
2022/08/27 05:15:37;;;;;;;10.13;7.05;;;;;;;13.88;100.00;101670.63;5051424;28;20017;-71
2022/08/27 05:18:05;;;;;;;11.40;6.95;;;;;;;13.96;100.00;101673.03;5051497;28;20338;-72
2022/08/27 05:20:32;;;;;;;13.90;7.50;;;;;;;14.04;100.00;101678.97;5050606;28;20092;-72
2022/08/27 05:22:58;;;;;;;9.68;7.25;;;;;;;14.16;100.00;101677.78;5046865;28;20056;-72
2022/08/27 05:25:24;;;;;;;15.05;7.50;;;;;;;14.29;100.00;101674.00;5050823;28;20075;-72
2022/08/27 05:27:50;;;;;;;13.15;7.55;;;;;;;14.47;100.00;101675.25;5050972;28;20035;-72
2022/08/27 05:30:15;;;;;;;11.90;7.88;;;;;;;14.55;100.00;101665.47;5050851;28;20096;-72
2022/08/27 05:32:42;;;;;;;11.60;7.45;;;;;;;14.71;100.00;101674.66;5039206;28;20060;-72
2022/08/27 05:35:08;;;;;;;10.05;7.22;;;;;;;14.81;100.00;101669.13;5050522;28;20075;-72
2022/08/27 05:37:34;;;;;;;10.85;7.60;;;;;;;14.88;99.86;101682.06;5051247;28;20022;-72
2022/08/27 05:40:00;;;;;;;11.60;7.55;;;;;;;14.92;98.69;101678.44;5051481;28;20028;-72
2022/08/27 05:42:28;;;;;;;13.32;7.13;;;;;;;14.95;99.22;101680.97;5045205;28;20040;-72
2022/08/27 05:44:53;;;;;;;12.20;7.32;;;;;;;15.01;99.62;101677.31;5052926;28;20461;-72
2022/08/27 05:47:18;;;;;;;10.70;7.13;;;;;;;15.01;99.69;101676.44;5051008;28;20160;-72
2022/08/27 05:49:44;;;;;;;17.30;7.90;;;;;;;15.06;98.83;101679.78;5048547;28;20037;-72
2022/08/27 05:52:10;;;;;;;12.60;7.45;;;;;;;15.07;100.00;101682.38;5048490;28;20025;-72
2022/08/27 05:54:36;;;;;;;13.48;7.88;;;;;;;15.16;99.26;101679.47;5039943;28;20032;-72
2022/08/27 05:57:02;;;;;;;11.23;7.25;;;;;;;15.13;99.32;101666.44;5053635;28;20033;-72
2022/08/27 06:02:11;;;;;;;14.55;7.75;;;;;;;15.38;97.41;101684.09;5042306;28;20036;-72
2022/08/27 06:04:36;;;;;;;11.52;7.40;;;;;;;15.46;97.32;101693.47;5054031;28;20018;-72
2022/08/27 06:07:02;;;;;;;12.30;7.40;;;;;;;15.57;98.10;101687.03;5054510;28;20110;-72
2022/08/27 06:09:28;;;;;;;10.82;7.28;;;;;;;15.64;97.80;101689.44;5053959;28;20518;-72
2022/08/27 06:11:55;;;;;;;10.52;6.97;;;;;;;15.64;95.94;101699.94;5049033;28;20488;-72
2022/08/27 06:14:20;;;;;;;11.30;7.25;;;;;;;15.72;96.10;101698.88;5054445;28;20040;-72
2022/08/27 06:16:46;;;;;;;11.70;7.55;;;;;;;15.77;96.57;101699.59;5054133;28;20021;-72
2022/08/27 06:19:11;;;;;;;10.68;6.82;;;;;;;15.75;94.36;101701.41;5054555;28;20037;-72
2022/08/27 06:21:38;;;;;;;12.20;7.25;;;;;;;15.72;95.08;101697.09;5051684;28;20074;-72
2022/08/27 06:24:04;;;;;;;13.85;7.63;;;;;;;15.79;93.96;101705.66;5053532;28;20021;-72
2022/08/27 06:26:29;;;;;;;11.48;7.95;;;;;;;15.80;95.74;101704.75;5054330;28;20400;-72
2022/08/27 06:28:55;;;;;;;12.23;7.38;;;;;;;15.84;95.02;101696.72;5054730;28;20032;-72
2022/08/27 06:31:26;;;;;;;10.85;7.72;;;;;;;15.94;95.19;101701.69;5046518;28;20103;-72
2022/08/27 06:33:53;;;;;;;11.60;7.43;;;;;;;16.01;94.95;101700.56;5044961;28;20095;-72
2022/08/27 06:36:22;;;;;;;8.82;6.80;;;;;;;16.06;94.66;101691.63;5053803;28;20021;-72
2022/08/27 06:38:48;;;;;;;11.23;7.35;;;;;;;16.11;93.82;101688.84;5053885;28;20025;-72
2022/08/27 06:41:15;;;;;;;10.43;7.32;;;;;;;16.20;92.69;101699.06;5046626;28;20114;-72
2022/08/27 06:43:42;;;;;;;11.63;7.45;;;;;;;16.24;92.66;101703.31;5035068;28;20412;-72
2022/08/27 06:46:10;;;;;;;11.77;7.63;;;;;;;16.31;91.29;101704.81;5035486;28;20045;-71
2022/08/27 06:48:37;;;;;;;13.30;7.47;;;;;;;16.41;92.10;101705.34;5026668;28;20056;-72
2022/08/27 06:51:15;;;;;;;11.63;7.50;;;;;;;16.44;92.13;101702.63;5045664;28;20030;-72
2022/08/27 06:53:42;;;;;;;11.10;7.13;;;;;;;16.44;90.07;101702.63;5046505;28;20030;-72
2022/08/27 06:56:09;;;;;;;10.88;6.90;;;;;;;16.44;91.22;101697.34;5046039;28;20510;-72
2022/08/27 06:58:35;;;;;;;10.27;6.88;;;;;;;16.51;90.45;101696.25;5043078;28;20453;-72
2022/08/27 07:01:09;;;;;;;11.68;7.32;;;;;;;16.63;90.17;101695.81;5024079;28;20421;-72
2022/08/27 07:03:34;;;;;;;10.75;7.07;;;;;;;16.71;90.47;101702.56;5051064;28;20473;-72
2022/08/27 07:06:05;;;;;;;11.45;6.63;;;;;;;16.74;90.19;101699.84;5048966;28;20075;-71
2022/08/27 07:08:30;;;;;;;9.57;6.97;;;;;;;16.83;90.52;101705.66;5049697;28;20028;-72
2022/08/27 07:10:56;;;;;;;13.45;6.70;;;;;;;16.93;89.98;101705.34;5047487;28;20025;-75
2022/08/27 07:13:21;;;;;;;11.27;7.13;;;;;;;16.94;89.50;101696.50;5041114;28;20397;-75
2022/08/27 07:15:47;;;;;;;14.95;6.53;;;;;;;17.00;88.42;101697.19;5031327;28;20539;-74
2022/08/27 07:18:12;;;;;;;9.55;7.10;;;;;;;17.02;87.29;101691.84;5034398;28;20033;-74
2022/08/27 07:20:39;;;;;;;11.70;6.47;;;;;;;17.21;87.85;101710.47;5051279;28;20439;-75
2022/08/27 07:23:05;;;;;;;10.70;6.43;;;;;;;17.24;86.83;101705.09;5053474;28;20115;-74
2022/08/27 07:25:31;;;;;;;12.10;5.88;;;;;;;17.31;86.72;101711.84;5048106;28;20450;-74
2022/08/27 07:27:57;;;;;;;11.15;6.38;;;;;;;17.33;87.57;101702.09;5043689;28;20485;-75
2022/08/27 07:30:22;;;;;;;9.70;5.47;;;;;;;17.35;86.44;101713.44;5048550;28;20052;-74
2022/08/27 07:32:48;;;;;;;11.35;6.57;;;;;;;17.31;85.28;101710.06;5053242;28;20539;-75
2022/08/27 07:35:13;;;;;;;9.27;5.97;;;;;;;17.27;86.52;101718.16;5051880;28;20399;-75
2022/08/27 07:37:39;;;;;;;10.95;5.90;;;;;;;17.27;86.86;101711.09;5037647;28;20025;-74
2022/08/27 07:40:08;;;;;;;9.45;5.55;;;;;;;17.32;87.09;101718.81;5033451;28;20061;-74
2022/08/27 07:45:18;;;;;;;9.35;5.30;;;;;;;17.22;85.64;101710.41;5052933;28;20392;-74
2022/08/27 07:47:43;;;;;;;9.55;5.00;;;;;;;17.09;86.50;101709.13;5043791;28;20041;-75
2022/08/27 07:50:09;;;;;;;8.15;5.10;;;;;;;16.97;84.54;101713.09;5040669;28;20029;-75
2022/08/27 07:52:34;;;;;;;8.95;4.50;;;;;;;16.86;85.44;101720.50;5051169;28;20036;-75
2022/08/27 07:55:00;;;;;;;15.38;5.40;;;;;;;16.75;85.08;101720.88;5052088;28;20028;-75
2022/08/27 07:57:25;;;;;;;8.82;5.00;;;;;;;16.67;84.31;101727.28;5042741;28;20431;-75
2022/08/27 07:59:52;;;;;;;9.88;5.32;;;;;;;16.62;84.68;101716.94;5038429;28;20033;-74
2022/08/27 08:02:17;;;;;;;9.23;5.43;;;;;;;16.72;84.79;101726.22;5033973;28;20080;-73
2022/08/27 08:04:43;;;;;;;10.27;5.45;;;;;;;16.93;85.62;101729.03;5052333;28;20438;-72
2022/08/27 08:07:08;;;;;;;11.63;5.80;;;;;;;17.08;84.39;101716.19;5040690;28;20381;-72
2022/08/27 08:09:33;;;;;;;9.00;5.25;;;;;;;17.36;84.40;101724.81;5051745;28;20468;-72
2022/08/27 08:11:59;;;;;;;10.75;5.28;;;;;;;17.60;84.82;101723.06;5052562;28;20041;-73
2022/08/27 08:14:24;;;;;;;10.48;5.47;;;;;;;17.85;82.48;101723.81;5052207;28;20032;-72
2022/08/27 08:16:49;;;;;;;9.82;5.32;;;;;;;17.92;79.58;101725.31;5051846;28;20029;-72
2022/08/27 08:19:15;;;;;;;8.98;5.13;;;;;;;18.06;80.02;101719.47;5052407;28;20064;-72
2022/08/27 08:21:41;;;;;;;7.40;4.47;;;;;;;18.31;79.38;101719.31;5052457;28;20404;-73
2022/08/27 08:24:07;;;;;;;10.10;4.22;;;;;;;18.44;77.08;101723.16;5051240;28;20484;-73
2022/08/27 08:26:32;;;;;;;11.18;4.90;;;;;;;18.34;75.45;101727.09;5052193;28;20077;-72
2022/08/27 08:28:59;;;;;;;6.45;4.65;;;;;;;18.24;75.94;101725.75;5052203;28;20029;-72
2022/08/27 08:31:26;;;;;;;6.28;4.20;;;;;;;18.19;76.05;101733.03;5050984;28;20052;-72
2022/08/27 08:33:51;;;;;;;8.00;4.15;;;;;;;18.15;75.61;101734.94;5052486;28;20040;-72
2022/08/27 08:36:17;;;;;;;11.18;4.40;;;;;;;18.13;75.63;101733.28;5051471;28;20021;-72
2022/08/27 08:38:44;;;;;;;6.45;4.00;;;;;;;18.19;76.46;101733.03;5051536;28;20037;-72
2022/08/27 08:41:27;;;;;;;7.90;4.38;;;;;;;18.33;78.04;101733.28;5051789;28;20112;-72
2022/08/27 08:43:54;;;;;;;8.33;4.60;;;;;;;18.42;77.52;101735.56;5052484;28;20025;-73
2022/08/27 08:46:29;;;;;;;7.53;4.88;;;;;;;18.46;75.33;101723.94;5050542;28;20128;-72
2022/08/27 08:49:01;;;;;;;13.15;4.43;;;;;;;18.47;75.06;101728.31;5052325;28;20381;-72
2022/08/27 08:51:41;;;;;;;6.40;4.05;;;;;;;18.58;74.81;101730.50;5050739;28;20055;-72
2022/08/27 08:54:12;;;;;;;9.25;4.43;;;;;;;18.67;73.53;101731.84;5051961;28;20082;-72
2022/08/27 08:57:11;;;;;;;11.00;4.75;;;;;;;18.82;74.37;101727.72;5051581;28;20021;-72
2022/08/27 08:59:46;;;;;;;8.98;4.18;;;;;;;18.97;73.60;101728.84;5050641;28;20473;-72
2022/08/27 09:02:13;;;;;;;8.10;4.13;;;;;;;19.14;71.57;101732.44;5051488;28;20032;-72
2022/08/27 09:04:40;;;;;;;5.90;3.75;;;;;;;19.35;68.18;101722.66;5051746;28;20098;-72
2022/08/27 09:07:15;;;;;;;7.15;3.40;;;;;;;19.72;70.85;101725.38;5050768;28;20036;-73
2022/08/27 09:09:53;;;;;;;8.50;4.13;;;;;;;20.05;66.86;101722.94;5051972;28;20053;-72
2022/08/27 09:12:23;;;;;;;7.43;3.50;;;;;;;20.50;66.99;101730.34;5050192;28;20037;-73
2022/08/27 09:15:06;;;;;;;7.60;2.97;;;;;;;21.05;64.28;101722.19;5051637;28;20427;-73
2022/08/27 09:17:32;;;;;;;6.68;3.28;;;;;;;21.21;59.66;101727.53;5051383;28;20028;-73
2022/08/27 09:19:57;;;;;;;5.43;2.67;;;;;;;21.27;58.39;101726.34;5051080;28;20033;-72
2022/08/27 09:22:52;;;;;;;5.30;2.45;;;;;;;21.11;62.79;101736.06;5050958;28;20046;-72
2022/08/27 09:25:25;;;;;;;3.88;2.22;;;;;;;20.95;61.46;101728.06;5050789;28;20064;-73
2022/08/27 09:27:55;;;;;;;4.13;2.15;;;;;;;20.78;61.01;101724.50;5051117;28;20020;-73
2022/08/27 09:30:26;;;;;;;3.95;2.25;;;;;;;20.85;61.75;101729.50;5050922;28;20036;-73
2022/08/27 09:32:56;;;;;;;5.60;2.50;;;;;;;20.93;60.61;101729.97;5051345;28;20029;-73
2022/08/27 09:35:25;;;;;;;4.20;2.17;;;;;;;20.99;61.12;101729.59;5050200;28;20087;-73
2022/08/27 09:37:53;;;;;;;7.22;2.70;;;;;;;21.21;57.37;101730.16;5051303;28;20074;-73
2022/08/27 09:40:32;;;;;;;4.95;2.20;;;;;;;21.45;59.50;101729.78;5050201;28;20488;-73
2022/08/27 09:43:06;;;;;;;7.40;2.22;;;;;;;21.60;59.95;101733.41;5051436;28;20100;-72
2022/08/27 09:45:33;;;;;;;7.05;2.22;;;;;;;21.52;56.82;101731.19;5051195;28;20086;-73
2022/08/27 09:48:06;;;;;;;6.75;2.35;;;;;;;21.11;59.75;101726.31;5046753;28;20427;-75
2022/08/27 09:50:43;;;;;;;5.03;2.22;;;;;;;20.63;62.13;101735.88;5031553;28;20029;-74
2022/08/27 09:53:44;;;;;;;4.70;2.20;;;;;;;20.42;62.00;101732.53;5037135;28;20056;-75
2022/08/27 09:56:22;;;;;;;4.55;2.53;;;;;;;20.38;61.23;101733.63;5010100;28;20114;-76
2022/08/27 09:58:54;;;;;;;3.72;2.05;;;;;;;20.46;63.32;101733.22;5023853;28;20017;-75
2022/08/27 10:01:25;;;;;;;4.65;2.25;;;;;;;20.50;60.31;101734.78;5030928;28;20854;-74
2022/08/27 10:04:07;;;;;;;5.32;2.55;;;;;;;20.66;61.05;101746.34;5050885;28;20016;-75
2022/08/27 10:06:33;;;;;;;6.63;2.40;;;;;;;20.88;58.10;101739.94;5050983;28;20055;-74
2022/08/27 10:09:15;;;;;;;6.15;3.00;;;;;;;21.04;59.01;101731.09;5042794;28;20467;-75
2022/08/27 10:11:53;;;;;;;4.57;2.30;;;;;;;21.07;59.27;101739.81;5051084;28;20053;-74
2022/08/27 10:14:27;;;;;;;3.72;2.22;;;;;;;21.21;59.19;101727.53;5048711;28;20513;-74
2022/08/27 10:16:59;;;;;;;6.47;2.42;;;;;;;21.42;57.96;101730.00;5050332;28;20044;-74
2022/08/27 10:19:36;;;;;;;4.90;2.40;;;;;;;21.69;53.60;101725.78;5050367;28;20495;-74
2022/08/27 10:22:19;;;;;;;6.55;2.72;;;;;;;21.95;55.74;101731.44;5050892;28;20037;-74
2022/08/27 10:25:14;;;;;;;7.38;2.60;;;;;;;22.28;54.96;101728.66;5036823;28;20056;-74
2022/08/27 10:27:48;;;;;;;4.47;2.33;;;;;;;22.59;54.48;101718.84;5020200;28;20026;-74
2022/08/27 10:30:17;;;;;;;5.57;2.33;;;;;;;22.63;54.03;101720.41;5015091;28;20026;-75
2022/08/27 10:32:42;;;;;;;5.55;1.92;;;;;;;22.77;51.92;101709.78;5026728;28;20061;-75
2022/08/27 10:35:17;;;;;;;4.40;2.00;;;;;;;22.80;54.27;101711.41;5017506;28;20046;-75
2022/08/27 10:37:56;;;;;;;5.75;2.70;;;;;;;22.59;53.77;101709.06;5014169;28;20030;-75
2022/08/27 10:40:50;;;;;;;4.90;2.42;;;;;;;22.68;54.83;101716.50;5020297;28;20037;-75
2022/08/27 10:43:52;;;;;;;6.07;2.53;;;;;;;22.67;54.67;101721.91;5023784;28;20040;-75
2022/08/27 10:46:46;;;;;;;5.55;2.58;;;;;;;22.38;54.86;101715.69;5019269;28;20119;-75
2022/08/27 10:49:43;;;;;;;4.03;2.20;;;;;;;22.27;54.98;101712.78;5016919;28;20080;-75
2022/08/27 10:52:19;;;;;;;5.95;2.50;;;;;;;22.33;54.53;101712.44;5012516;28;20128;-74
2022/08/27 10:54:58;;;;;;;5.85;2.50;;;;;;;22.47;54.10;101709.81;5019363;28;20029;-75
2022/08/27 10:57:41;;;;;;;7.07;2.67;;;;;;;22.33;54.13;101718.59;5014657;28;20027;-74
2022/08/27 11:00:18;;;;;;;6.53;3.20;;;;;;;22.16;53.41;101718.72;5023955;28;20377;-75
2022/08/27 11:02:52;;;;;;;9.15;2.78;;;;;;;22.02;55.67;101726.63;5036249;28;20044;-75
2022/08/27 11:05:42;;;;;;;5.80;2.67;;;;;;;21.99;56.00;101725.00;5032484;28;20013;-75
2022/08/27 11:08:26;;;;;;;4.43;1.95;;;;;;;22.06;56.05;101715.72;5031966;28;20190;-75
2022/08/27 11:11:00;;;;;;;4.70;2.53;;;;;;;22.00;52.61;101712.56;5034045;28;20061;-76
2022/08/27 11:13:37;;;;;;;5.25;2.55;;;;;;;22.07;54.93;101717.47;5031726;28;20029;-75
2022/08/27 11:16:15;;;;;;;4.25;2.20;;;;;;;22.12;53.40;101720.69;5033553;28;20097;-75
2022/08/27 11:18:43;;;;;;;5.88;2.63;;;;;;;22.23;54.40;101711.25;5032157;28;20052;-75
2022/08/27 11:21:33;;;;;;;5.35;2.30;;;;;;;22.34;54.81;101696.41;5027671;28;20026;-75
2022/08/27 11:24:10;;;;;;;6.43;2.33;;;;;;;22.58;53.66;101706.53;5032772;28;20021;-75
2022/08/27 11:26:40;;;;;;;4.32;2.30;;;;;;;22.68;51.86;101703.19;5031742;28;20516;-75
2022/08/27 11:29:17;;;;;;;4.72;2.30;;;;;;;22.84;52.21;101702.28;5033316;28;20037;-76
2022/08/27 11:31:53;;;;;;;6.10;2.08;;;;;;;22.97;52.13;101700.59;5047802;28;20029;-75
2022/08/27 11:34:23;;;;;;;4.03;1.88;;;;;;;23.12;51.35;101699.66;5040800;28;20524;-76
2022/08/27 11:36:58;;;;;;;6.35;1.90;;;;;;;23.29;51.36;101697.72;5053770;28;20032;-76